Strona główna
METAR-TAF:

METAR-TAF

Lotnisko :

Florianópolis, Santa Catarina, Brazylia

Szerokość geograficzna: 27-40S, Długość geograficzna: 048-33W, wysokość: 5 m

Aktualna obserwacja pogody

Raport powstał 21 minut temu, godzina 14:00 UTC
Wiatr 8 kt od wschód
Temperatura 24°C
Wilgotność 50%
Ciśnienie 1021 hPa
Widzialność 10 km lub więcej
Rozproszone chmury na wysokości 4000 ft
Przerywane chmury na wysokości 6000 ft

METAR: SBFL 201400Z 10008KT 9999 SCT040 BKN060 24/13 Q1021

czas: 12:21 (14:21 UTC)

Prognoza

Raport powstał 5 godziny i 36 minut temu, godzina 08:45 UTC
Prognoza ważna od 20 godzina 12 UTC do 21 godzina 12 UTC
Wiatr 7 kt od północny wschód
Widzialność 10 km lub więcej
Rozproszone chmury na wysokości 3000 ft
Stopniowe zmiany
od 20 godzina 21 UTC do 20 godzina 23 UTC
Widzialność 10 km lub więcej
Brak chmur poniżej 1500 m i brak chmur cumulonimbus

TAF: SBFL 200845Z 2012/2112 04007KT 9999 SCT030 TX25/2018Z TN18/2108Z BECMG 2021/2023 CAVOK RMK PEB

Obserwacja i prognoza pogody dla ponad 4000 lotnisk (raport METAR i TAF).

Dostępne stacje oznaczono żółtymi i czerwonymi punktami na mapie.

Najedź kursorem aby zobaczyć nazwę stacji.

Kliknij aby zobaczyć obserwacje i prognozy pogody.

Aby zmienić mapę: kliknij na zielony przycisk z czarnym krzyżykiem, aby powiększyć; na zielony przycisk z myślnikiem, aby pomniejszyć; na zielone strzałki, aby przejść do map sąsiednich.


METAR-TAF: